Terminal Aerodrome Forecast
Issued by NWS

Home | Current Version | Previous Version | Text Only | Print | Product List | Glossary On
Versions: 1 2 3 4 5 6 7 8 9 10 11 12 13 14 15 16
391
FTAK31 PAJN 031211 AAA
TAFAWG
TAF AMD
PAWG 031211Z 0312/0412 15008KT P6SM -SHRA BKN035 OVC045
      WS020/22030KT
      TEMPO 0312/0315 15010G18KT 6SM -SHRA BR BKN015 OVC025
     FM031800 15010KT P6SM -SHRA BKN035 OVC045
      TEMPO 0321/0324 4SM -SHRASN BKN015 OVC025
      AMD LTD TO CLD VIS AND WIND 0312/0315=

USA.gov is the U.S. government's official web portal to all federal, state and local government web resources and services.